createdAt,value
2019-01-05T00:00:53.722Z,4.3
2019-01-05T00:02:03.866Z,4.28
2019-01-05T00:03:14.018Z,4.28
2019-01-05T00:04:24.165Z,4.28
2019-01-05T00:05:34.333Z,4.31
2019-01-05T00:06:44.495Z,4.3
2019-01-05T00:07:54.644Z,4.34
2019-01-05T00:09:04.803Z,4.33
2019-01-05T00:10:15.002Z,4.31
2019-01-05T00:11:25.147Z,4.28
2019-01-05T00:12:35.048Z,4.34
2019-01-05T00:13:45.240Z,4.31
2019-01-05T00:14:55.612Z,4.37
2019-01-05T00:16:05.810Z,4.27
2019-01-05T00:17:15.717Z,4.34
2019-01-05T00:18:25.861Z,4.28
2019-01-05T00:19:36.038Z,4.3
2019-01-05T00:20:46.235Z,4.28
2019-01-05T00:21:56.385Z,4.33
2019-01-05T00:23:06.536Z,4.3
2019-01-05T00:24:16.719Z,4.28
2019-01-05T00:25:26.846Z,4.33
2019-01-05T00:26:36.975Z,4.37
2019-01-05T00:27:47.103Z,4.34
2019-01-05T00:28:57.243Z,4.33
2019-01-05T00:30:07.400Z,4.31
2019-01-05T00:31:17.524Z,4.38
2019-01-05T00:32:27.686Z,4.4
2019-01-05T00:33:37.858Z,4.34
2019-01-05T00:34:48.478Z,4.47
2019-01-05T00:35:58.620Z,4.4
2019-01-05T00:37:08.743Z,4.4
2019-01-05T00:38:18.507Z,4.46
2019-01-05T00:39:28.668Z,4.47
2019-01-05T00:40:38.845Z,4.34
2019-01-05T00:41:48.987Z,4.46
2019-01-05T00:42:59.127Z,4.37
2019-01-05T00:44:09.286Z,4.49
2019-01-05T00:45:19.420Z,4.46
2019-01-05T00:46:29.559Z,4.49
2019-01-05T00:47:39.434Z,4.46
2019-01-05T00:48:49.599Z,4.55
2019-01-05T00:49:59.722Z,4.52
2019-01-05T00:51:09.838Z,4.52
2019-01-05T00:52:19.990Z,4.53
2019-01-05T00:53:29.778Z,4.52
2019-01-05T00:54:39.934Z,4.49
2019-01-05T00:55:50.093Z,4.56
2019-01-05T00:57:00.225Z,4.49
2019-01-05T00:58:10.369Z,4.55
2019-01-05T00:59:20.508Z,4.5
2019-01-05T01:00:30.653Z,4.56
2019-01-05T01:01:40.795Z,4.59
2019-01-05T01:02:50.951Z,4.56
2019-01-05T01:04:01.096Z,4.6
2019-01-05T01:05:11.229Z,4.55
2019-01-05T01:06:21.332Z,4.56
2019-01-05T01:07:31.479Z,4.59
2019-01-05T01:08:41.645Z,4.62
2019-01-05T01:09:51.800Z,4.62
2019-01-05T01:11:01.930Z,4.67
2019-01-05T01:12:11.832Z,4.55
2019-01-05T01:13:21.970Z,4.6
2019-01-05T01:14:32.102Z,4.55
2019-01-05T01:15:42.211Z,4.63
2019-01-05T01:16:52.336Z,4.73
2019-01-05T01:18:02.464Z,4.71
2019-01-05T01:19:12.636Z,4.71
2019-01-05T01:20:22.506Z,4.71
2019-01-05T01:21:32.623Z,4.7
2019-01-05T01:22:42.764Z,4.71
2019-01-05T01:23:52.917Z,4.7
2019-01-05T01:25:03.044Z,4.63
2019-01-05T01:26:13.178Z,4.68
2019-01-05T01:27:23.328Z,4.67
2019-01-05T01:28:33.435Z,4.67
2019-01-05T01:29:43.549Z,4.67
2019-01-05T01:30:53.677Z,4.67
2019-01-05T01:32:03.788Z,4.65
2019-01-05T01:33:13.891Z,4.7
2019-01-05T01:34:23.993Z,4.6
2019-01-05T01:35:34.127Z,4.75
2019-01-05T01:36:43.972Z,4.7
2019-01-05T01:37:54.087Z,4.74
2019-01-05T01:39:04.196Z,4.78
2019-01-05T01:40:14.320Z,4.8
2019-01-05T01:41:24.449Z,4.7
2019-01-05T01:42:34.566Z,4.71
2019-01-05T01:43:44.680Z,4.85
2019-01-05T01:44:54.793Z,4.71
2019-01-05T01:46:04.921Z,4.73
2019-01-05T01:47:15.026Z,4.8
2019-01-05T01:48:25.132Z,4.8
2019-01-05T01:49:35.249Z,4.83
2019-01-05T01:50:45.358Z,4.81
2019-01-05T01:51:55.468Z,4.77
2019-01-05T01:53:05.585Z,4.85
2019-01-05T01:54:15.697Z,4.81
2019-01-05T01:55:25.800Z,4.81
2019-01-05T01:56:35.932Z,4.86
2019-01-05T01:57:46.069Z,4.8
2019-01-05T01:58:56.180Z,4.9
2019-01-05T02:00:06.354Z,4.83
2019-01-05T02:01:16.522Z,4.85
2019-01-05T02:02:26.826Z,4.95
2019-01-05T02:03:36.738Z,4.98
2019-01-05T02:04:46.620Z,4.98
2019-01-05T02:05:56.735Z,4.96
2019-01-05T02:07:06.861Z,4.93
2019-01-05T02:08:16.983Z,4.92
2019-01-05T02:09:27.099Z,4.96
2019-01-05T02:10:37.232Z,4.92
2019-01-05T02:11:47.348Z,4.92
2019-01-05T02:12:57.452Z,4.92
2019-01-05T02:14:07.563Z,4.95
2019-01-05T02:15:17.715Z,4.89
2019-01-05T02:16:27.826Z,4.9
2019-01-05T02:17:38.911Z,4.92
2019-01-05T02:18:49.038Z,4.95
2019-01-05T02:19:59.148Z,4.95
2019-01-05T02:21:09.251Z,4.98
2019-01-05T02:22:19.104Z,4.95
2019-01-05T02:23:29.205Z,4.96
2019-01-05T02:24:39.323Z,5.03
2019-01-05T02:25:49.425Z,4.98
2019-01-05T02:26:59.533Z,4.95
2019-01-05T02:28:09.387Z,4.98
2019-01-05T02:29:19.487Z,4.96
2019-01-05T02:30:29.367Z,5.03
2019-01-05T02:31:39.486Z,5
2019-01-05T02:32:49.606Z,5.03
2019-01-05T02:33:59.717Z,4.99
2019-01-05T02:35:09.828Z,5.06
2019-01-05T02:36:19.932Z,5.06
2019-01-05T02:37:29.697Z,5.04
2019-01-05T02:38:39.563Z,5
2019-01-05T02:39:49.688Z,5
2019-01-05T02:40:59.797Z,5.04
2019-01-05T02:42:09.673Z,5.04
2019-01-05T02:43:19.830Z,5.03
2019-01-05T02:44:29.960Z,4.98
2019-01-05T02:45:40.148Z,4.98
2019-01-05T02:46:50.321Z,5.07
2019-01-05T02:48:00.477Z,5
2019-01-05T02:49:10.619Z,5.03
2019-01-05T02:50:20.734Z,5.08
2019-01-05T02:51:30.846Z,4.95
2019-01-05T02:52:40.987Z,5.06
2019-01-05T02:53:51.098Z,5.03
2019-01-05T02:55:01.225Z,5.04
2019-01-05T02:56:11.341Z,4.99
2019-01-05T02:57:21.453Z,5.03
2019-01-05T02:58:31.575Z,5.06
2019-01-05T02:59:41.686Z,5.06
2019-01-05T03:00:51.787Z,4.99
2019-01-05T03:02:01.653Z,5.04
2019-01-05T03:03:11.753Z,5
2019-01-05T03:04:21.968Z,5.07
2019-01-05T03:05:32.122Z,5.07
2019-01-05T03:06:42.233Z,5.04
2019-01-05T03:07:52.345Z,5.13
2019-01-05T03:09:02.472Z,5.11
2019-01-05T03:10:12.599Z,5.11
2019-01-05T03:11:22.357Z,5.14
2019-01-05T03:12:32.533Z,5.07
2019-01-05T03:13:42.649Z,5.11
2019-01-05T03:14:52.750Z,5.08
2019-01-05T03:16:02.855Z,5.14
2019-01-05T03:17:12.960Z,5.07
2019-01-05T03:18:23.070Z,5.14
2019-01-05T03:19:33.171Z,5.13
2019-01-05T03:20:43.280Z,5.14
2019-01-05T03:21:53.412Z,5.16
2019-01-05T03:23:03.545Z,5.13
2019-01-05T03:24:13.400Z,5.04
2019-01-05T03:25:23.256Z,5.11
2019-01-05T03:26:33.427Z,5.16
2019-01-05T03:27:43.611Z,5.13
2019-01-05T03:28:53.720Z,5.11
2019-01-05T03:30:03.840Z,5.08
2019-01-05T03:31:14.089Z,5.06
2019-01-05T03:32:24.256Z,5.1
2019-01-05T03:33:34.117Z,5.13
2019-01-05T03:34:44.225Z,5.08
2019-01-05T03:35:54.364Z,5.16
2019-01-05T03:37:04.479Z,5.1
2019-01-05T03:38:14.802Z,5.08
2019-01-05T03:39:24.548Z,5.06
2019-01-05T03:40:34.663Z,5.08
2019-01-05T03:41:44.784Z,5.11
2019-01-05T03:42:54.929Z,5.08
2019-01-05T03:44:05.048Z,5.07
2019-01-05T03:45:15.158Z,5.04
2019-01-05T03:46:25.270Z,5.08
2019-01-05T03:47:35.394Z,5.1
2019-01-05T03:48:45.508Z,5.14
2019-01-05T03:49:55.615Z,5.1
2019-01-05T03:51:05.721Z,5.13
2019-01-05T03:52:15.831Z,5.06
2019-01-05T03:53:26.170Z,5.14
2019-01-05T03:54:36.046Z,5.07
2019-01-05T03:55:46.191Z,5.17
2019-01-05T03:56:56.369Z,5.11
2019-01-05T03:58:06.494Z,5.11
2019-01-05T03:59:16.629Z,5.08
2019-01-05T04:00:26.756Z,5.08
2019-01-05T04:01:36.610Z,5.13
2019-01-05T04:02:46.721Z,5.16
2019-01-05T04:03:56.862Z,5.13
2019-01-05T04:05:07.013Z,5.11
2019-01-05T04:06:17.118Z,5.13
2019-01-05T04:07:27.258Z,5.16
2019-01-05T04:08:37.365Z,5.14
2019-01-05T04:09:47.481Z,5.16
2019-01-05T04:10:57.577Z,5.18
2019-01-05T04:12:07.706Z,5.17
2019-01-05T04:13:17.822Z,5.17
2019-01-05T04:14:27.931Z,5.18
2019-01-05T04:15:37.789Z,5.22
2019-01-05T04:16:48.005Z,5.18
2019-01-05T04:17:58.119Z,5.24
2019-01-05T04:19:08.225Z,5.22
2019-01-05T04:20:18.341Z,5.18
2019-01-05T04:21:28.457Z,5.25
2019-01-05T04:22:38.573Z,5.21
2019-01-05T04:23:48.684Z,5.24
2019-01-05T04:24:58.799Z,5.28
2019-01-05T04:26:08.923Z,5.18
2019-01-05T04:27:19.042Z,5.17
2019-01-05T04:28:29.151Z,5.17
2019-01-05T04:29:39.256Z,5.18
2019-01-05T04:30:49.358Z,5.16
2019-01-05T04:31:59.460Z,5.16
2019-01-05T04:33:09.583Z,5.29
2019-01-05T04:34:19.693Z,5.18
2019-01-05T04:35:29.802Z,5.31
2019-01-05T04:36:39.905Z,5.21
2019-01-05T04:37:50.039Z,5.16
2019-01-05T04:38:59.782Z,5.29
2019-01-05T04:40:09.898Z,5.26
2019-01-05T04:41:19.664Z,5.18
2019-01-05T04:42:29.766Z,5.16
2019-01-05T04:43:39.904Z,5.16
2019-01-05T04:44:50.027Z,5.32
2019-01-05T04:46:00.150Z,5.16
2019-01-05T04:47:10.273Z,5.25
2019-01-05T04:48:19.878Z,5.25
2019-01-05T04:49:29.995Z,5.17
2019-01-05T04:50:40.192Z,5.29
2019-01-05T04:51:50.325Z,5.18
2019-01-05T04:53:00.444Z,5.29
2019-01-05T04:54:10.556Z,5.18
2019-01-05T04:55:20.656Z,5.18
2019-01-05T04:56:30.763Z,5.18
2019-01-05T04:57:40.881Z,5.28
2019-01-05T04:58:50.986Z,5.18
2019-01-05T05:00:00.845Z,5.31
2019-01-05T05:01:10.959Z,5.17
2019-01-05T05:02:21.068Z,5.18
2019-01-05T05:03:31.196Z,5.17
2019-01-05T05:04:41.306Z,5.28
2019-01-05T05:05:51.067Z,5.28
2019-01-05T05:07:01.170Z,5.22
2019-01-05T05:08:11.281Z,5.25
2019-01-05T05:09:21.409Z,5.22
2019-01-05T05:10:31.281Z,5.28
2019-01-05T05:11:41.399Z,5.32
2019-01-05T05:12:51.501Z,5.25
2019-01-05T05:14:01.354Z,5.24
2019-01-05T05:15:11.460Z,5.28
2019-01-05T05:16:21.560Z,5.28
2019-01-05T05:17:31.683Z,5.25
2019-01-05T05:18:41.802Z,5.17
2019-01-05T05:19:51.917Z,5.32
2019-01-05T05:21:02.068Z,5.29
2019-01-05T05:22:12.292Z,5.28
2019-01-05T05:23:22.178Z,5.17
2019-01-05T05:24:32.281Z,5.26
2019-01-05T05:25:42.126Z,5.32
2019-01-05T05:26:52.244Z,5.31
2019-01-05T05:28:02.369Z,5.28
2019-01-05T05:29:12.477Z,5.28
2019-01-05T05:30:22.596Z,5.29
2019-01-05T05:31:32.706Z,5.29
2019-01-05T05:32:42.565Z,5.31
2019-01-05T05:33:52.668Z,5.29
2019-01-05T05:35:02.769Z,5.31
2019-01-05T05:36:12.874Z,5.28
2019-01-05T05:37:22.996Z,5.32
2019-01-05T05:38:33.128Z,5.43
2019-01-05T05:39:43.227Z,5.36
2019-01-05T05:40:53.331Z,5.36
2019-01-05T05:42:04.418Z,5.43
2019-01-05T05:43:14.590Z,5.43
2019-01-05T05:44:24.687Z,5.33
2019-01-05T05:45:34.794Z,5.4
2019-01-05T05:46:44.909Z,5.43
2019-01-05T05:47:55.036Z,5.43
2019-01-05T05:49:04.897Z,5.4
2019-01-05T05:50:14.996Z,5.4
2019-01-05T05:51:25.111Z,5.49
2019-01-05T05:52:35.230Z,5.43
2019-01-05T05:53:45.340Z,5.41
2019-01-05T05:54:55.446Z,5.47
2019-01-05T05:56:05.788Z,5.44
2019-01-05T05:57:15.912Z,5.41
2019-01-05T05:58:26.007Z,5.43
2019-01-05T05:59:36.114Z,5.46
2019-01-05T06:00:46.276Z,5.47
2019-01-05T06:01:56.376Z,5.46
2019-01-05T06:03:06.491Z,5.46
2019-01-05T06:04:16.602Z,5.41
2019-01-05T06:05:26.714Z,5.43
2019-01-05T06:06:36.564Z,5.4
2019-01-05T06:07:46.664Z,5.38
2019-01-05T06:08:56.771Z,5.38
2019-01-05T06:10:06.874Z,5.43
2019-01-05T06:11:17.005Z,5.46
2019-01-05T06:12:27.106Z,5.44
2019-01-05T06:13:37.215Z,5.46
2019-01-05T06:14:47.329Z,5.43
2019-01-05T06:15:57.440Z,5.47
2019-01-05T06:17:07.303Z,5.41
2019-01-05T06:18:17.154Z,5.44
2019-01-05T06:19:27.303Z,5.47
2019-01-05T06:20:37.402Z,5.44
2019-01-05T06:21:47.509Z,5.49
2019-01-05T06:22:57.650Z,5.44
2019-01-05T06:24:07.497Z,5.47
2019-01-05T06:25:17.614Z,5.43
2019-01-05T06:26:27.744Z,5.49
2019-01-05T06:27:37.864Z,5.46
2019-01-05T06:28:47.970Z,5.53
2019-01-05T06:29:58.081Z,5.49
2019-01-05T06:31:08.186Z,5.43
2019-01-05T06:32:18.296Z,5.46
2019-01-05T06:33:28.414Z,5.41
2019-01-05T06:34:38.271Z,5.44
2019-01-05T06:35:48.396Z,5.47
2019-01-05T06:36:58.509Z,5.44
2019-01-05T06:38:08.635Z,5.44
2019-01-05T06:39:18.750Z,5.46
2019-01-05T06:40:28.872Z,5.43
2019-01-05T06:41:38.976Z,5.43
2019-01-05T06:42:48.718Z,5.49
2019-01-05T06:43:58.814Z,5.44
2019-01-05T06:45:08.955Z,5.5
2019-01-05T06:46:19.064Z,5.44
2019-01-05T06:47:29.209Z,5.44
2019-01-05T06:48:39.357Z,5.44
2019-01-05T06:49:49.459Z,5.47
2019-01-05T06:50:58.940Z,5.41
2019-01-05T06:52:09.040Z,5.46
2019-01-05T06:53:18.878Z,5.41
2019-01-05T06:54:28.997Z,5.38
2019-01-05T06:55:39.112Z,5.5
2019-01-05T06:56:49.443Z,5.5
2019-01-05T06:57:59.573Z,5.41
2019-01-05T06:59:09.689Z,5.47
2019-01-05T07:00:19.796Z,5.41
2019-01-05T07:01:29.908Z,5.47
2019-01-05T07:02:40.032Z,5.59
2019-01-05T07:03:50.127Z,5.51
2019-01-05T07:05:00.249Z,5.49
2019-01-05T07:06:10.092Z,5.51
2019-01-05T07:07:20.191Z,5.59
2019-01-05T07:08:30.288Z,5.53
2019-01-05T07:09:40.421Z,5.56
2019-01-05T07:10:49.914Z,5.56
2019-01-05T07:12:00.015Z,5.54
2019-01-05T07:13:10.149Z,5.53
2019-01-05T07:14:19.998Z,5.59
2019-01-05T07:15:30.137Z,5.56
2019-01-05T07:16:40.268Z,5.59
2019-01-05T07:17:50.376Z,5.54
2019-01-05T07:19:00.493Z,5.53
2019-01-05T07:20:10.596Z,5.54
2019-01-05T07:21:20.709Z,5.5
2019-01-05T07:22:30.565Z,5.56
2019-01-05T07:23:40.677Z,5.5
2019-01-05T07:24:50.825Z,5.54
2019-01-05T07:26:00.935Z,5.54
2019-01-05T07:27:11.053Z,5.53
2019-01-05T07:28:21.168Z,5.59
2019-01-05T07:29:31.325Z,5.56
2019-01-05T07:30:41.175Z,5.58
2019-01-05T07:31:51.291Z,5.53
2019-01-05T07:33:01.388Z,5.56
2019-01-05T07:34:11.498Z,5.56
2019-01-05T07:35:21.671Z,5.58
2019-01-05T07:36:31.786Z,5.51
2019-01-05T07:37:41.397Z,5.51
2019-01-05T07:38:51.502Z,5.53
2019-01-05T07:40:01.627Z,5.64
2019-01-05T07:41:11.736Z,5.54
2019-01-05T07:42:21.853Z,5.64
2019-01-05T07:43:32.062Z,5.56
2019-01-05T07:44:42.207Z,5.61
2019-01-05T07:45:52.339Z,5.62
2019-01-05T07:47:02.452Z,5.64
2019-01-05T07:48:12.583Z,5.69
2019-01-05T07:49:22.938Z,5.65
2019-01-05T07:50:34.031Z,5.67
2019-01-05T07:51:44.150Z,5.69
2019-01-05T07:52:54.273Z,5.69
2019-01-05T07:54:04.375Z,5.68
2019-01-05T07:55:14.487Z,5.71
2019-01-05T07:56:24.601Z,5.65
2019-01-05T07:57:34.703Z,5.68
2019-01-05T07:58:44.846Z,5.68
2019-01-05T07:59:54.971Z,5.72
2019-01-05T08:01:05.086Z,5.65
2019-01-05T08:02:15.231Z,5.67
2019-01-05T08:03:25.464Z,5.68
2019-01-05T08:04:35.659Z,5.64
2019-01-05T08:05:45.795Z,5.71
2019-01-05T08:06:55.914Z,5.74
2019-01-05T08:08:06.039Z,5.68
2019-01-05T08:09:16.157Z,5.72
2019-01-05T08:10:26.324Z,5.68
2019-01-05T08:11:36.179Z,5.74
2019-01-05T08:12:46.289Z,5.71
2019-01-05T08:13:56.391Z,5.69
2019-01-05T08:15:06.599Z,5.69
2019-01-05T08:16:16.703Z,5.71
2019-01-05T08:17:26.820Z,5.75
2019-01-05T08:18:36.941Z,5.74
2019-01-05T08:19:47.062Z,5.77
2019-01-05T08:20:57.898Z,5.8
2019-01-05T08:22:08.032Z,5.83
2019-01-05T08:23:18.128Z,5.82
2019-01-05T08:24:28.247Z,5.83
2019-01-05T08:25:38.378Z,5.83
2019-01-05T08:26:48.486Z,5.86
2019-01-05T08:27:58.645Z,5.9
2019-01-05T08:29:08.760Z,5.91
2019-01-05T08:30:18.898Z,5.8
2019-01-05T08:31:29.024Z,5.79
2019-01-05T08:32:39.154Z,5.93
2019-01-05T08:33:49.267Z,5.88
2019-01-05T08:34:59.119Z,5.86
2019-01-05T08:36:09.249Z,5.86
2019-01-05T08:37:19.368Z,5.84
2019-01-05T08:38:29.503Z,5.91
2019-01-05T08:39:39.606Z,5.86
2019-01-05T08:40:49.732Z,5.77
2019-01-05T08:41:59.844Z,5.77
2019-01-05T08:43:10.045Z,5.88
2019-01-05T08:44:19.915Z,5.83
2019-01-05T08:45:30.036Z,5.94
2019-01-05T08:46:40.141Z,5.79
2019-01-05T08:47:50.009Z,5.9
2019-01-05T08:49:00.140Z,5.88
2019-01-05T08:50:10.265Z,5.9
2019-01-05T08:51:20.387Z,5.9
2019-01-05T08:52:30.498Z,5.84
2019-01-05T08:53:40.608Z,5.86
2019-01-05T08:54:50.932Z,5.91
2019-01-05T08:56:01.157Z,5.91
2019-01-05T08:57:11.270Z,6.03
2019-01-05T08:58:20.872Z,6.03
2019-01-05T08:59:30.988Z,5.94
2019-01-05T09:00:41.123Z,6.09
2019-01-05T09:01:51.260Z,5.96
2019-01-05T09:03:01.137Z,5.94
2019-01-05T09:04:11.255Z,5.94
2019-01-05T09:05:21.365Z,5.99
2019-01-05T09:06:31.626Z,5.98
2019-01-05T09:07:41.735Z,5.93
2019-01-05T09:08:51.885Z,6.03
2019-01-05T09:10:02.010Z,5.99
2019-01-05T09:11:12.137Z,6.06
2019-01-05T09:12:22.275Z,5.98
2019-01-05T09:13:32.387Z,5.99
2019-01-05T09:14:42.498Z,6.01
2019-01-05T09:15:52.610Z,6.05
2019-01-05T09:17:02.744Z,6.02
2019-01-05T09:18:12.873Z,6.02
2019-01-05T09:19:23.011Z,6.05
2019-01-05T09:20:33.123Z,6.09
2019-01-05T09:21:43.251Z,6.14
2019-01-05T09:22:53.374Z,6.12
2019-01-05T09:24:03.510Z,6.06
2019-01-05T09:25:13.286Z,6.03
2019-01-05T09:26:23.389Z,6.05
2019-01-05T09:27:33.548Z,6.05
2019-01-05T09:28:43.704Z,6.14
2019-01-05T09:29:53.586Z,6.11
2019-01-05T09:31:03.714Z,6.14
2019-01-05T09:32:13.833Z,6.09
2019-01-05T09:33:23.952Z,6.06
2019-01-05T09:34:34.075Z,6.14
2019-01-05T09:35:44.179Z,6.12
2019-01-05T09:36:54.404Z,6.19
2019-01-05T09:38:04.530Z,6.17
2019-01-05T09:39:14.662Z,6.19
2019-01-05T09:40:24.784Z,6.17
2019-01-05T09:41:34.908Z,6.19
2019-01-05T09:42:45.021Z,6.21
2019-01-05T09:43:55.152Z,6.2
2019-01-05T09:45:05.260Z,6.23
2019-01-05T09:46:15.377Z,6.17
2019-01-05T09:47:25.493Z,6.2
2019-01-05T09:48:35.616Z,6.17
2019-01-05T09:49:45.731Z,6.16
2019-01-05T09:50:55.876Z,6.2
2019-01-05T09:52:06.003Z,6.19
2019-01-05T09:53:16.122Z,6.14
2019-01-05T09:54:26.265Z,6.24
2019-01-05T09:55:36.399Z,6.27
2019-01-05T09:56:46.544Z,6.27
2019-01-05T09:57:56.694Z,6.36
2019-01-05T09:59:06.313Z,6.35
2019-01-05T10:00:16.426Z,6.3
2019-01-05T10:01:26.578Z,6.3
2019-01-05T10:02:36.707Z,6.3
2019-01-05T10:03:46.578Z,6.35
2019-01-05T10:04:56.708Z,6.41
2019-01-05T10:06:06.851Z,6.26
2019-01-05T10:07:16.995Z,6.34
2019-01-05T10:08:27.153Z,6.28
2019-01-05T10:09:37.286Z,6.31
2019-01-05T10:10:47.635Z,6.31
2019-01-05T10:11:57.779Z,6.3
2019-01-05T10:13:07.921Z,6.35
2019-01-05T10:14:18.261Z,6.3
2019-01-05T10:15:28.400Z,6.34
2019-01-05T10:16:38.275Z,6.34
2019-01-05T10:17:48.424Z,6.38
2019-01-05T10:18:58.574Z,6.42
2019-01-05T10:20:08.725Z,6.45
2019-01-05T10:21:18.888Z,6.56
2019-01-05T10:22:29.070Z,6.46
2019-01-05T10:23:39.234Z,6.54
2019-01-05T10:24:49.384Z,6.45
2019-01-05T10:25:59.521Z,6.57
2019-01-05T10:27:09.645Z,6.59
2019-01-05T10:28:19.797Z,6.52
2019-01-05T10:29:29.686Z,6.48
2019-01-05T10:30:39.825Z,6.53
2019-01-05T10:31:49.991Z,6.49
2019-01-05T10:32:59.879Z,6.49
2019-01-05T10:34:10.049Z,6.59
2019-01-05T10:35:21.186Z,6.54
2019-01-05T10:36:31.319Z,6.54
2019-01-05T10:37:41.508Z,6.56
2019-01-05T10:38:51.703Z,6.48
2019-01-05T10:40:01.857Z,6.56
2019-01-05T10:41:12.013Z,6.56
2019-01-05T10:42:22.177Z,6.49
2019-01-05T10:43:32.325Z,6.57
2019-01-05T10:44:42.472Z,6.52
2019-01-05T10:45:52.357Z,6.52
2019-01-05T10:47:02.234Z,6.59
2019-01-05T10:48:12.395Z,6.62
2019-01-05T10:49:22.566Z,6.56
2019-01-05T10:50:32.464Z,6.52
2019-01-05T10:51:42.581Z,6.63
2019-01-05T10:52:52.749Z,6.53
2019-01-05T10:54:02.897Z,6.59
2019-01-05T10:55:13.036Z,6.52
2019-01-05T10:56:23.187Z,6.59
2019-01-05T10:57:33.348Z,6.54
2019-01-05T10:58:43.474Z,6.52
2019-01-05T10:59:53.620Z,6.52
2019-01-05T11:01:03.767Z,6.63
2019-01-05T11:02:13.964Z,6.54
2019-01-05T11:03:24.123Z,6.54
2019-01-05T11:04:34.271Z,6.63
2019-01-05T11:05:44.488Z,6.59
2019-01-05T11:06:54.627Z,6.52
2019-01-05T11:08:04.779Z,6.63
2019-01-05T11:09:14.939Z,6.66
2019-01-05T11:10:25.090Z,6.63
2019-01-05T11:11:35.235Z,6.63
2019-01-05T11:12:45.363Z,6.63
2019-01-05T11:13:55.496Z,6.63
2019-01-05T11:15:05.399Z,6.63
2019-01-05T11:16:15.539Z,6.63
2019-01-05T11:17:25.680Z,6.63
2019-01-05T11:18:35.849Z,6.59
2019-01-05T11:19:45.996Z,6.59
2019-01-05T11:20:56.148Z,6.62
2019-01-05T11:22:06.298Z,6.62
2019-01-05T11:23:16.428Z,6.63
2019-01-05T11:24:26.574Z,6.54
2019-01-05T11:25:36.466Z,6.57
2019-01-05T11:26:46.628Z,6.66
2019-01-05T11:27:56.806Z,6.62
2019-01-05T11:29:06.994Z,6.63
2019-01-05T11:30:17.141Z,6.57
2019-01-05T11:31:27.391Z,6.64
2019-01-05T11:32:37.594Z,6.59
2019-01-05T11:33:47.768Z,6.57
2019-01-05T11:34:57.946Z,6.64
2019-01-05T11:36:08.123Z,6.64
2019-01-05T11:37:18.321Z,6.67
2019-01-05T11:38:28.496Z,6.63
2019-01-05T11:39:38.762Z,6.66
2019-01-05T11:40:48.999Z,6.6
2019-01-05T11:41:59.189Z,6.63
2019-01-05T11:43:09.372Z,6.63
2019-01-05T11:44:19.559Z,6.57
2019-01-05T11:45:29.706Z,6.64
2019-01-05T11:46:39.861Z,6.64
2019-01-05T11:47:50.031Z,6.56
2019-01-05T11:49:00.225Z,6.62
2019-01-05T11:50:10.413Z,6.69
2019-01-05T11:51:20.583Z,6.59
2019-01-05T11:52:30.783Z,6.63
2019-01-05T11:53:41.008Z,6.67
2019-01-05T11:54:51.195Z,6.66
2019-01-05T11:56:01.430Z,6.6
2019-01-05T11:57:11.591Z,6.59
2019-01-05T11:58:21.740Z,6.52
2019-01-05T11:59:31.905Z,6.57
2019-01-05T12:00:42.113Z,6.62
2019-01-05T12:01:52.299Z,6.63
2019-01-05T12:03:02.457Z,6.64
2019-01-05T12:04:12.603Z,6.6
2019-01-05T12:05:22.794Z,6.67
2019-01-05T12:06:32.998Z,6.66
2019-01-05T12:07:43.172Z,6.62
2019-01-05T12:08:53.344Z,6.64
2019-01-05T12:10:03.528Z,6.63
2019-01-05T12:11:13.683Z,6.69
2019-01-05T12:12:23.628Z,6.67
2019-01-05T12:13:33.794Z,6.67
2019-01-05T12:14:43.921Z,6.74
2019-01-05T12:15:54.057Z,6.71
2019-01-05T12:17:03.887Z,6.6
2019-01-05T12:18:13.770Z,6.69
2019-01-05T12:19:23.920Z,6.64
2019-01-05T12:20:34.080Z,6.75
2019-01-05T12:21:44.228Z,6.67
2019-01-05T12:22:54.375Z,6.59
2019-01-05T12:24:04.532Z,6.54
2019-01-05T12:25:14.682Z,6.64
2019-01-05T12:26:25.790Z,6.63
2019-01-05T12:27:36.957Z,6.64
2019-01-05T12:28:47.110Z,6.59
2019-01-05T12:29:57.287Z,6.62
2019-01-05T12:31:07.469Z,6.64
2019-01-05T12:32:17.636Z,6.67
2019-01-05T12:33:27.785Z,6.63
2019-01-05T12:34:37.666Z,6.6
2019-01-05T12:35:47.615Z,6.66
2019-01-05T12:36:57.759Z,6.62
2019-01-05T12:38:07.924Z,6.62
2019-01-05T12:39:18.140Z,6.64
2019-01-05T12:40:28.276Z,6.75
2019-01-05T12:41:38.441Z,6.74
2019-01-05T12:42:49.750Z,6.75
2019-01-05T12:43:59.656Z,6.74
2019-01-05T12:45:09.804Z,6.79
2019-01-05T12:46:19.942Z,6.84
2019-01-05T12:47:30.094Z,6.81
2019-01-05T12:48:40.251Z,6.85
2019-01-05T12:49:50.470Z,6.93
2019-01-05T12:51:00.669Z,6.9
2019-01-05T12:52:10.839Z,6.96
2019-01-05T12:53:20.995Z,6.97
2019-01-05T12:54:31.175Z,6.95
2019-01-05T12:55:41.356Z,7
2019-01-05T12:56:51.491Z,6.92
2019-01-05T12:58:01.317Z,7.11
2019-01-05T12:59:11.479Z,6.89
2019-01-05T13:00:21.642Z,6.99
2019-01-05T13:01:31.790Z,7.03
2019-01-05T13:02:41.971Z,7
2019-01-05T13:03:52.114Z,6.93
2019-01-05T13:05:02.301Z,7
2019-01-05T13:06:14.028Z,6.95
2019-01-05T13:07:24.215Z,6.99
2019-01-05T13:08:34.386Z,6.9
2019-01-05T13:09:44.556Z,6.89
2019-01-05T13:10:54.705Z,6.93
2019-01-05T13:12:04.878Z,6.92
2019-01-05T13:13:15.229Z,6.96
2019-01-05T13:14:25.499Z,6.95
2019-01-05T13:15:35.660Z,6.99
2019-01-05T13:16:45.876Z,6.97
2019-01-05T13:18:02.209Z,6.93
2019-01-05T13:19:12.116Z,6.93
2019-01-05T13:20:22.277Z,6.87
2019-01-05T13:21:32.459Z,6.95
2019-01-05T13:22:42.627Z,6.85
2019-01-05T13:23:52.773Z,6.84
2019-01-05T13:25:02.966Z,6.82
2019-01-05T13:26:14.218Z,6.81
2019-01-05T13:27:24.471Z,6.82
2019-01-05T13:28:34.753Z,6.79
2019-01-05T13:29:45.120Z,6.82
2019-01-05T13:30:55.333Z,6.81
2019-01-05T13:32:05.512Z,6.71
2019-01-05T13:33:15.721Z,6.72
2019-01-05T13:34:25.855Z,6.64
2019-01-05T13:35:36.078Z,6.62
2019-01-05T13:36:46.241Z,6.64
2019-01-05T13:37:56.422Z,6.63
2019-01-05T13:39:06.570Z,6.69
2019-01-05T13:40:16.766Z,6.64
2019-01-05T13:41:26.586Z,6.67
2019-01-05T13:42:36.495Z,6.64
2019-01-05T13:43:46.662Z,6.62
2019-01-05T13:44:56.796Z,6.63
2019-01-05T13:46:06.955Z,6.62
2019-01-05T13:47:17.125Z,6.6
2019-01-05T13:48:27.284Z,6.62
2019-01-05T13:49:37.447Z,6.6
2019-01-05T13:50:47.356Z,6.63
2019-01-05T13:51:57.522Z,6.63
2019-01-05T13:53:07.696Z,6.53
2019-01-05T13:54:17.881Z,6.62
2019-01-05T13:55:28.064Z,6.57
2019-01-05T13:56:38.242Z,6.6
2019-01-05T13:57:48.406Z,6.56
2019-01-05T13:58:57.979Z,6.6
2019-01-05T14:00:08.157Z,6.64
2019-01-05T14:01:18.365Z,6.66
2019-01-05T14:02:28.531Z,6.59
2019-01-05T14:03:38.706Z,6.62
2019-01-05T14:04:48.871Z,6.53
2019-01-05T14:05:59.024Z,6.63
2019-01-05T14:07:09.168Z,6.56
2019-01-05T14:08:19.346Z,6.59
2019-01-05T14:09:29.273Z,6.59
2019-01-05T14:10:39.466Z,6.64
2019-01-05T14:11:49.867Z,6.57
2019-01-05T14:12:59.772Z,6.57
2019-01-05T14:14:09.559Z,6.64
2019-01-05T14:15:19.717Z,6.62
2019-01-05T14:16:29.906Z,6.67
2019-01-05T14:17:40.411Z,6.62
2019-01-05T14:18:50.700Z,6.59
2019-01-05T14:20:00.855Z,6.56
2019-01-05T14:21:17.134Z,6.59
2019-01-05T14:22:27.049Z,6.52
2019-01-05T14:23:37.227Z,6.52
2019-01-05T14:24:47.403Z,6.54
2019-01-05T14:25:57.566Z,6.48
2019-01-05T14:27:07.701Z,6.53
2019-01-05T14:28:17.880Z,6.52
2019-01-05T14:29:28.067Z,6.53
2019-01-05T14:30:38.271Z,6.63
2019-01-05T14:31:48.461Z,6.53
2019-01-05T14:32:58.633Z,6.56
2019-01-05T14:34:08.816Z,6.59
2019-01-05T14:35:18.990Z,6.49
2019-01-05T14:36:29.189Z,6.49
2019-01-05T14:37:39.354Z,6.52
2019-01-05T14:38:49.553Z,6.49
2019-01-05T14:39:59.717Z,6.44
2019-01-05T14:41:09.901Z,6.54
2019-01-05T14:42:20.052Z,6.39
2019-01-05T14:43:30.238Z,6.44
2019-01-05T14:44:40.391Z,6.42
2019-01-05T14:45:50.558Z,6.48
2019-01-05T14:47:00.758Z,6.48
2019-01-05T14:48:10.922Z,6.45
2019-01-05T14:49:21.102Z,6.44
2019-01-05T14:50:31.218Z,6.41
2019-01-05T14:51:41.386Z,6.41
2019-01-05T14:52:51.537Z,6.35
2019-01-05T14:54:01.697Z,6.44
2019-01-05T14:55:11.857Z,6.42
2019-01-05T14:56:22.036Z,6.42
2019-01-05T14:57:31.925Z,6.45
2019-01-05T14:58:42.081Z,6.39
2019-01-05T14:59:52.235Z,6.44
2019-01-05T15:01:02.374Z,6.42
2019-01-05T15:02:12.271Z,6.46
2019-01-05T15:03:22.451Z,6.49
2019-01-05T15:04:32.606Z,6.49
2019-01-05T15:05:43.053Z,6.38
2019-01-05T15:06:53.754Z,6.46
2019-01-05T15:08:04.072Z,6.57
2019-01-05T15:09:14.654Z,6.49
2019-01-05T15:10:24.841Z,6.41
2019-01-05T15:11:35.884Z,6.45
2019-01-05T15:12:46.047Z,6.42
2019-01-05T15:13:56.218Z,6.45
2019-01-05T15:15:06.388Z,6.38
2019-01-05T15:16:16.529Z,6.45
2019-01-05T15:17:26.705Z,6.44
2019-01-05T15:18:37.816Z,6.41
2019-01-05T15:19:47.965Z,6.42
2019-01-05T15:20:58.143Z,6.45
2019-01-05T15:22:08.506Z,6.48
2019-01-05T15:23:18.665Z,6.44
2019-01-05T15:24:28.852Z,6.42
2019-01-05T15:25:38.762Z,6.45
2019-01-05T15:26:48.919Z,6.45
2019-01-05T15:27:59.100Z,6.42
2019-01-05T15:29:09.379Z,6.41
2019-01-05T15:30:19.592Z,6.44
2019-01-05T15:31:29.749Z,6.42
2019-01-05T15:32:39.906Z,6.41
2019-01-05T15:33:50.052Z,6.52
2019-01-05T15:35:00.212Z,6.44
2019-01-05T15:36:10.379Z,6.46
2019-01-05T15:37:20.573Z,6.42